Pays
Station

 

Conditions  météo  pour  Le Marine Aviation Reporting Station  -  Etats-Unis    Etats-Unis

  
1 °C
    
 
 

METAR pour Le Marine Aviation Reporting Station :

KLRJ 041715Z AUTO 07005KT 10SM SCT120 01/M04 A3024 RMK AO2

 

Voici le bulletin pour Le Marine Aviation Reporting Station - Etats-Unis.
 
Le bulletin a été fait il y a 14 minutes, à 17:15 UTC .
Le vent soufflait à la vitesse de 2.6 mètres par seconde de Est/Nord-est (070°).
 
La température était de 1 °C, avec un point de rosée à -4 °C.
La température ressentie était de -2 °C.
 
La pression atmosphérique était de 1024 hPa.
L'humidité relative était de 69.2%.
 
Il y avait 3 à 4/8ème de nébulosité à une hauteur de 3658 mètres.
 
La visibilité globale était de 16.1 kilomètres.
 

 
 
 

Pays :   A   B   C   D   E   F   G   H   I   J   K   L   M   N   O   P   Q   R   S   T   U   V   W   Y   Z

 

Partenaires :  Info Météo avec Met'info
Météo Marine avec MeteoMarine.net
Infos Site  |  Infos Légales  |  Crédits  |  Confidentialité
Contactez-nous  |  Ajouter aux favoris
© 2013-2020 METAR - Tous droits réservés